Weather at Grabenstetten Airport

Public forecast

Using degrees Celsius for public forecast. Weather courtesy of forecast.io.

Closest aviation weather report (METAR) to Grabenstetten Airport

Closest report is Stuttgart Airport, 12.6 nm (23.3 km) NW. Retrieved 2020/09/21 18:20 UTC (21 minutes ago):

EDDS 211820Z 36005KT 340V040 9999 FEW050TCU 22/13 Q1014 NOSIG

Closest aviation forecast (TAF) to Grabenstetten Airport

Closest forecast is Stuttgart Airport, 12.6 nm (23.3 km) NW. Retrieved 2020/09/21 18:27 UTC (14 minutes ago):

TAF TAF EDDS 211700Z 2118/2218 VRB03KT CAVOK